createdAt,value
2019-01-19T00:00:19.548Z,-0.47
2019-01-19T00:03:21.789Z,-0.52
2019-01-19T00:06:35.842Z,-0.55
2019-01-19T00:09:31.800Z,-0.58
2019-01-19T00:12:38.609Z,-0.57
2019-01-19T00:15:32.015Z,-0.59
2019-01-19T00:18:46.386Z,-0.60
2019-01-19T00:21:40.063Z,-0.59
2019-01-19T00:24:48.435Z,-0.61
2019-01-19T00:27:41.862Z,-0.62
2019-01-19T00:30:43.720Z,-0.62
2019-01-19T00:33:42.589Z,-0.65
2019-01-19T00:36:35.962Z,-0.67
2019-01-19T00:39:26.270Z,-0.70
2019-01-19T00:42:22.442Z,-0.70
2019-01-19T00:45:35.071Z,-0.71
2019-01-19T00:48:33.729Z,-0.70
2019-01-19T00:51:29.885Z,-0.68
2019-01-19T00:54:19.970Z,-0.66
2019-01-19T00:57:09.821Z,-0.68
2019-01-19T00:59:57.388Z,-0.68
2019-01-19T01:02:50.865Z,-0.69
2019-01-19T01:05:43.754Z,-0.72
2019-01-19T01:08:51.570Z,-0.72
2019-01-19T01:11:44.571Z,-0.74
2019-01-19T01:14:46.492Z,-0.76
2019-01-19T01:17:37.295Z,-0.76
2019-01-19T01:20:47.117Z,-0.77
2019-01-19T01:23:42.965Z,-0.75
2019-01-19T01:26:35.391Z,-0.73
2019-01-19T01:29:49.310Z,-0.73
2019-01-19T01:32:42.601Z,-0.74
2019-01-19T01:35:49.231Z,-0.75
2019-01-19T01:38:51.183Z,-0.76
2019-01-19T01:41:47.531Z,-0.73
2019-01-19T01:44:49.529Z,-0.74
2019-01-19T01:47:39.741Z,-0.75
2019-01-19T01:50:41.792Z,-0.74
2019-01-19T01:54:05.326Z,-0.71
2019-01-19T01:56:52.700Z,-0.71
2019-01-19T01:59:54.427Z,-0.70
2019-01-19T02:02:47.689Z,-0.69
2019-01-19T02:05:49.963Z,-0.67
2019-01-19T02:08:43.335Z,-0.67
2019-01-19T02:11:45.192Z,-0.68
2019-01-19T02:14:44.055Z,-0.67
2019-01-19T02:17:46.132Z,-0.67
2019-01-19T02:20:45.094Z,-0.68
2019-01-19T02:23:35.422Z,-0.68
2019-01-19T02:26:41.816Z,-0.70
2019-01-19T02:29:50.501Z,-0.71
2019-01-19T02:32:40.681Z,-0.70
2019-01-19T02:35:48.644Z,-0.70
2019-01-19T02:38:52.320Z,-0.70
2019-01-19T02:41:42.434Z,-0.73
2019-01-19T02:44:32.364Z,-0.74
2019-01-19T02:47:34.693Z,-0.74
2019-01-19T02:50:36.965Z,-0.77
2019-01-19T02:53:36.331Z,-0.78
2019-01-19T02:56:38.624Z,-0.77
2019-01-19T02:59:31.847Z,-0.78
2019-01-19T03:02:42.899Z,-0.78
2019-01-19T03:05:45.429Z,-0.79
2019-01-19T03:08:44.512Z,-0.82
2019-01-19T03:11:40.760Z,-0.85
2019-01-19T03:14:30.898Z,-0.84
2019-01-19T03:17:32.951Z,-0.85
2019-01-19T03:20:44.185Z,-0.86
2019-01-19T03:23:40.210Z,-0.85
2019-01-19T03:26:50.260Z,-0.87
2019-01-19T03:29:43.265Z,-0.86
2019-01-19T03:32:42.746Z,-0.87
2019-01-19T03:35:36.091Z,-0.88
2019-01-19T03:38:35.527Z,-0.90
2019-01-19T03:41:38.478Z,-0.90
2019-01-19T03:44:34.876Z,-0.90
2019-01-19T03:47:30.855Z,-0.91
2019-01-19T03:50:29.508Z,-0.92
2019-01-19T03:53:23.114Z,-0.93
2019-01-19T03:56:28.710Z,-0.93
2019-01-19T03:59:19.383Z,-0.93
2019-01-19T04:02:45.965Z,-0.97
2019-01-19T04:05:36.538Z,-1.00
2019-01-19T04:08:32.150Z,-1.00
2019-01-19T04:11:31.229Z,-0.98
2019-01-19T04:14:41.911Z,-0.96
2019-01-19T04:17:41.064Z,-0.96
2019-01-19T04:20:40.201Z,-0.95
2019-01-19T04:23:27.419Z,-0.91
2019-01-19T04:26:15.936Z,-0.91
2019-01-19T04:29:03.189Z,-0.92
2019-01-19T04:31:50.567Z,-0.96
2019-01-19T04:34:38.157Z,-0.95
2019-01-19T04:37:25.367Z,-0.97
2019-01-19T04:40:13.307Z,-0.94
2019-01-19T04:43:00.675Z,-0.92
2019-01-19T04:45:47.582Z,-0.90
2019-01-19T04:48:35.733Z,-0.87
2019-01-19T04:51:22.980Z,-0.87
2019-01-19T04:54:10.225Z,-0.91
2019-01-19T04:56:57.077Z,-0.89
2019-01-19T04:59:44.363Z,-0.89
2019-01-19T05:02:31.684Z,-0.89
2019-01-19T05:05:18.917Z,-0.86
2019-01-19T05:08:06.017Z,-0.87
2019-01-19T05:10:53.321Z,-0.88
2019-01-19T05:13:40.515Z,-0.89
2019-01-19T05:16:27.940Z,-0.90
2019-01-19T05:19:15.215Z,-0.95
2019-01-19T05:22:02.606Z,-0.99
2019-01-19T05:24:49.737Z,-1.00
2019-01-19T05:27:36.986Z,-1.05
2019-01-19T05:30:24.527Z,-1.05
2019-01-19T05:33:11.858Z,-1.07
2019-01-19T05:35:58.830Z,-1.20
2019-01-19T05:38:46.499Z,-1.49
2019-01-19T05:41:33.799Z,-1.32
2019-01-19T05:44:21.009Z,-1.20
2019-01-19T05:47:08.312Z,-1.13
2019-01-19T05:49:55.784Z,-1.11
2019-01-19T05:52:42.730Z,-1.09
2019-01-19T05:55:29.662Z,-1.08
2019-01-19T05:58:17.034Z,-1.08
2019-01-19T06:01:04.275Z,-1.08
2019-01-19T06:03:51.678Z,-1.08
2019-01-19T06:06:46.396Z,-1.10
2019-01-19T06:09:27.666Z,-1.12
2019-01-19T06:12:15.084Z,-1.14
2019-01-19T06:15:02.298Z,-1.16
2019-01-19T06:17:49.660Z,-1.17
2019-01-19T06:20:36.868Z,-1.15
2019-01-19T06:23:24.208Z,-1.13
2019-01-19T06:26:11.391Z,-1.17
2019-01-19T06:28:58.647Z,-1.22
2019-01-19T06:31:45.538Z,-1.24
2019-01-19T06:34:33.211Z,-1.25
2019-01-19T06:37:20.858Z,-1.25
2019-01-19T06:40:11.546Z,-1.27
2019-01-19T06:42:58.764Z,-1.29
2019-01-19T06:45:46.287Z,-1.26
2019-01-19T06:48:33.649Z,-1.29
2019-01-19T06:51:20.640Z,-1.28
2019-01-19T06:54:08.002Z,-1.38
2019-01-19T06:56:55.245Z,-1.40
2019-01-19T06:59:42.414Z,-1.47
2019-01-19T07:02:29.608Z,-1.47
2019-01-19T07:05:17.228Z,-1.47
2019-01-19T07:08:04.654Z,-1.49
2019-01-19T07:10:52.217Z,-1.50
2019-01-19T07:13:39.382Z,-1.52
2019-01-19T07:16:26.664Z,-1.52
2019-01-19T07:19:14.165Z,-1.52
2019-01-19T07:22:01.086Z,-1.52
2019-01-19T07:24:48.679Z,-1.53
2019-01-19T07:27:35.993Z,-1.55
2019-01-19T07:30:22.937Z,-1.52
2019-01-19T07:33:10.367Z,-1.53
2019-01-19T07:35:57.682Z,-1.52
2019-01-19T07:38:44.590Z,-1.50
2019-01-19T07:41:31.686Z,-1.48
2019-01-19T07:44:18.734Z,-1.48
2019-01-19T07:47:06.595Z,-1.41
2019-01-19T07:49:53.931Z,-1.43
2019-01-19T07:52:40.953Z,-1.44
2019-01-19T07:55:28.623Z,-1.41
2019-01-19T07:58:16.153Z,-1.41
2019-01-19T08:01:03.570Z,-1.51
2019-01-19T08:03:50.845Z,-1.51
2019-01-19T08:06:38.280Z,-1.35
2019-01-19T08:09:25.573Z,-1.20
2019-01-19T08:12:13.033Z,-1.14
2019-01-19T08:15:00.393Z,-1.04
2019-01-19T08:17:47.696Z,-1.00
2019-01-19T08:20:35.183Z,-0.98
2019-01-19T08:23:22.186Z,-0.91
2019-01-19T08:26:09.685Z,-0.81
2019-01-19T08:28:56.593Z,-0.70
2019-01-19T08:31:43.855Z,-0.61
2019-01-19T08:34:31.288Z,-0.53
2019-01-19T08:37:24.283Z,-0.44
2019-01-19T08:40:13.285Z,-0.31
2019-01-19T08:43:13.861Z,-0.23
2019-01-19T08:46:02.205Z,-0.13
2019-01-19T08:48:49.449Z,-0.09
2019-01-19T08:51:36.905Z,-0.09
2019-01-19T08:54:24.499Z,0.08
2019-01-19T08:57:11.938Z,0.22
2019-01-19T08:59:58.941Z,0.37
2019-01-19T09:02:46.195Z,0.50
2019-01-19T09:05:33.429Z,0.63
2019-01-19T09:08:20.999Z,0.83
2019-01-19T09:11:08.389Z,1.01
2019-01-19T09:13:55.745Z,1.19
2019-01-19T09:16:43.101Z,1.33
2019-01-19T09:19:32.055Z,1.46
2019-01-19T09:22:19.274Z,1.67
2019-01-19T09:25:09.377Z,1.82
2019-01-19T09:27:56.950Z,1.94
2019-01-19T09:30:44.365Z,2.07
2019-01-19T09:33:32.009Z,2.24
2019-01-19T09:36:19.534Z,2.33
2019-01-19T09:39:09.622Z,2.55
2019-01-19T09:41:56.814Z,2.83
2019-01-19T09:44:44.067Z,2.96
2019-01-19T09:47:31.022Z,3.24
2019-01-19T09:50:22.353Z,3.48
2019-01-19T09:53:09.652Z,3.70
2019-01-19T09:55:57.013Z,3.81
2019-01-19T09:58:44.233Z,3.94
2019-01-19T10:01:31.501Z,4.03
2019-01-19T10:04:18.441Z,4.14
2019-01-19T10:07:05.618Z,4.19
2019-01-19T10:09:52.804Z,4.24
2019-01-19T10:12:40.054Z,4.29
2019-01-19T10:15:27.025Z,4.37
2019-01-19T10:18:14.392Z,4.47
2019-01-19T10:21:01.860Z,4.62
2019-01-19T10:23:48.912Z,4.68
2019-01-19T10:26:36.515Z,4.77
2019-01-19T10:29:24.300Z,4.88
2019-01-19T10:32:11.345Z,5.01
2019-01-19T10:34:58.556Z,5.13
2019-01-19T10:37:45.815Z,5.18
2019-01-19T10:40:33.406Z,5.27
2019-01-19T10:43:20.944Z,5.18
2019-01-19T10:46:08.109Z,5.18
2019-01-19T10:48:55.615Z,4.98
2019-01-19T10:51:42.841Z,4.65
2019-01-19T10:54:30.020Z,4.85
2019-01-19T10:57:17.564Z,5.06
2019-01-19T11:00:08.039Z,4.88
2019-01-19T11:02:55.764Z,4.98
2019-01-19T11:05:43.001Z,4.98
2019-01-19T11:08:30.172Z,5.05
2019-01-19T11:11:17.591Z,4.98
2019-01-19T11:14:05.145Z,5.05
2019-01-19T11:16:52.615Z,4.68
2019-01-19T11:19:39.580Z,4.82
2019-01-19T11:22:26.763Z,4.66
2019-01-19T11:25:14.440Z,4.82
2019-01-19T11:28:01.727Z,4.96
2019-01-19T11:30:49.229Z,5.07
2019-01-19T11:33:36.481Z,5.11
2019-01-19T11:36:23.737Z,5.15
2019-01-19T11:39:11.195Z,5.00
2019-01-19T11:41:59.208Z,4.86
2019-01-19T11:44:47.055Z,5.02
2019-01-19T11:47:34.649Z,5.06
2019-01-19T11:50:22.829Z,5.04
2019-01-19T11:53:10.111Z,4.99
2019-01-19T11:55:57.532Z,4.86
2019-01-19T11:58:44.699Z,4.82
2019-01-19T12:01:32.871Z,4.84
2019-01-19T12:04:20.408Z,4.87
2019-01-19T12:07:07.887Z,4.70
2019-01-19T12:09:54.833Z,4.96
2019-01-19T12:12:42.032Z,5.11
2019-01-19T12:15:29.480Z,4.70
2019-01-19T12:18:16.770Z,5.17
2019-01-19T12:21:04.182Z,4.69
2019-01-19T12:23:51.272Z,4.50
2019-01-19T12:26:38.750Z,4.61
2019-01-19T12:29:26.164Z,4.73
2019-01-19T12:32:13.396Z,4.90
2019-01-19T12:35:00.249Z,5.02
2019-01-19T12:37:47.588Z,5.03
2019-01-19T12:40:34.846Z,5.16
2019-01-19T12:43:22.352Z,5.19
2019-01-19T12:46:09.827Z,5.09
2019-01-19T12:48:57.106Z,5.28
2019-01-19T12:51:44.618Z,5.32
2019-01-19T12:54:32.387Z,5.47
2019-01-19T12:57:19.807Z,5.60
2019-01-19T13:00:10.076Z,5.58
2019-01-19T13:02:57.641Z,5.59
2019-01-19T13:05:53.358Z,5.46
2019-01-19T13:08:41.844Z,5.43
2019-01-19T13:11:49.470Z,5.40
2019-01-19T13:14:39.744Z,5.30
2019-01-19T13:17:41.786Z,5.44
2019-01-19T13:20:43.735Z,5.49
2019-01-19T13:23:45.156Z,5.45
2019-01-19T13:26:41.035Z,5.69
2019-01-19T13:30:02.806Z,5.67
2019-01-19T13:33:10.835Z,5.67
2019-01-19T13:36:23.810Z,5.75
2019-01-19T13:39:23.009Z,5.73
2019-01-19T13:42:19.129Z,5.55
2019-01-19T13:45:12.229Z,5.84
2019-01-19T13:48:05.340Z,5.80
2019-01-19T13:51:11.686Z,5.88
2019-01-19T13:54:22.459Z,5.86
2019-01-19T13:57:16.176Z,5.20
2019-01-19T14:00:18.748Z,5.40
2019-01-19T14:03:23.277Z,5.53
2019-01-19T14:06:13.146Z,5.73
2019-01-19T14:09:17.960Z,5.76
2019-01-19T14:12:17.181Z,5.74
2019-01-19T14:15:13.728Z,5.80
2019-01-19T14:18:09.919Z,5.71
2019-01-19T14:21:05.856Z,5.66
2019-01-19T14:24:09.226Z,5.70
2019-01-19T14:27:14.458Z,5.49
2019-01-19T14:30:19.673Z,5.58
2019-01-19T14:33:12.560Z,4.50
2019-01-19T14:36:23.243Z,4.16
2019-01-19T14:39:25.185Z,3.95
2019-01-19T14:42:18.539Z,3.53
2019-01-19T14:45:17.895Z,3.87
2019-01-19T14:48:10.576Z,4.10
2019-01-19T14:51:03.395Z,4.31
2019-01-19T14:54:05.787Z,4.06
2019-01-19T14:56:59.146Z,3.45
2019-01-19T15:00:07.161Z,2.91
2019-01-19T15:03:07.519Z,3.45
2019-01-19T15:06:16.483Z,4.02
2019-01-19T15:09:12.588Z,4.18
2019-01-19T15:12:17.791Z,4.10
2019-01-19T15:15:31.409Z,4.07
2019-01-19T15:18:32.000Z,3.82
2019-01-19T15:21:22.331Z,3.85
2019-01-19T15:24:21.857Z,3.81
2019-01-19T15:27:20.841Z,3.75
2019-01-19T15:30:11.515Z,3.55
2019-01-19T15:33:07.967Z,3.58
2019-01-19T15:35:58.164Z,3.54
2019-01-19T15:38:57.321Z,3.46
2019-01-19T15:41:56.073Z,3.40
2019-01-19T15:44:58.186Z,3.38
2019-01-19T15:48:06.285Z,3.22
2019-01-19T15:51:11.573Z,3.26
2019-01-19T15:54:21.207Z,3.18
2019-01-19T15:57:17.438Z,2.97
2019-01-19T16:00:28.524Z,2.68
2019-01-19T16:03:36.813Z,1.70
2019-01-19T16:06:39.449Z,0.88
2019-01-19T16:09:48.057Z,0.77
2019-01-19T16:12:46.003Z,1.26
2019-01-19T16:15:52.332Z,1.33
2019-01-19T16:18:42.548Z,1.47
2019-01-19T16:21:41.526Z,1.49
2019-01-19T16:24:43.505Z,1.50
2019-01-19T16:27:51.836Z,1.83
2019-01-19T16:31:11.931Z,1.79
2019-01-19T16:34:11.020Z,1.98
2019-01-19T16:37:10.269Z,2.06
2019-01-19T16:40:12.285Z,2.13
2019-01-19T16:43:14.480Z,2.16
2019-01-19T16:46:21.206Z,2.17
2019-01-19T16:49:14.188Z,2.05
2019-01-19T16:52:22.363Z,2.12
2019-01-19T16:55:36.971Z,2.08
2019-01-19T16:58:46.081Z,2.05
2019-01-19T17:01:44.636Z,1.92
2019-01-19T17:04:54.403Z,1.91
2019-01-19T17:07:47.576Z,1.87
2019-01-19T17:10:52.757Z,1.85
2019-01-19T17:13:54.778Z,1.87
2019-01-19T17:17:02.766Z,1.81
2019-01-19T17:20:17.181Z,1.78
2019-01-19T17:23:13.074Z,1.76
2019-01-19T17:26:22.565Z,1.66
2019-01-19T17:29:18.861Z,1.58
2019-01-19T17:32:21.057Z,1.58
2019-01-19T17:35:34.182Z,1.56
2019-01-19T17:38:39.513Z,1.54
2019-01-19T17:41:57.995Z,1.58
2019-01-19T17:44:57.214Z,1.54
2019-01-19T17:48:03.964Z,1.55
2019-01-19T17:51:15.220Z,1.54
2019-01-19T17:54:40.558Z,1.53
2019-01-19T17:57:31.146Z,0.31
2019-01-19T18:00:36.350Z,1.43
2019-01-19T18:03:32.381Z,1.44
2019-01-19T18:06:38.805Z,1.43
2019-01-19T18:09:31.460Z,1.27
2019-01-19T18:12:30.625Z,1.02
2019-01-19T18:15:41.886Z,0.82
2019-01-19T18:18:49.983Z,0.93
2019-01-19T18:22:04.374Z,1.18
2019-01-19T18:25:12.061Z,1.10
2019-01-19T18:28:02.362Z,1.24
2019-01-19T18:31:07.625Z,1.31
2019-01-19T18:33:58.221Z,1.26
2019-01-19T18:36:48.395Z,1.21
2019-01-19T18:39:38.832Z,1.10
2019-01-19T18:42:41.072Z,1.08
2019-01-19T18:45:31.570Z,0.95
2019-01-19T18:48:54.660Z,0.90
2019-01-19T18:51:56.842Z,0.75
2019-01-19T18:55:03.676Z,0.62
2019-01-19T18:58:05.915Z,0.74
2019-01-19T19:01:02.302Z,0.80
2019-01-19T19:04:13.371Z,0.81
2019-01-19T19:07:21.475Z,0.82
2019-01-19T19:10:17.677Z,0.93
2019-01-19T19:13:07.899Z,0.96
2019-01-19T19:16:09.790Z,0.91
2019-01-19T19:19:32.819Z,0.94
2019-01-19T19:22:39.467Z,1.00
2019-01-19T19:26:02.455Z,1.00
2019-01-19T19:28:58.739Z,1.03
2019-01-19T19:31:49.332Z,1.01
2019-01-19T19:34:42.123Z,1.00
2019-01-19T19:37:54.910Z,0.97
2019-01-19T19:41:10.752Z,0.96
2019-01-19T19:44:18.697Z,0.93
2019-01-19T19:47:18.010Z,0.83
2019-01-19T19:50:39.887Z,0.78
2019-01-19T19:53:26.890Z,0.75
2019-01-19T19:56:13.039Z,0.70
2019-01-19T19:59:00.239Z,0.66
2019-01-19T20:01:47.479Z,0.53
2019-01-19T20:04:34.974Z,0.54
2019-01-19T20:07:22.478Z,0.56
2019-01-19T20:10:17.077Z,0.57
2019-01-19T20:13:00.638Z,0.55
2019-01-19T20:15:47.649Z,0.45
2019-01-19T20:18:35.170Z,0.36
2019-01-19T20:21:22.067Z,0.31
2019-01-19T20:24:09.286Z,0.31
2019-01-19T20:26:56.485Z,0.26
2019-01-19T20:29:44.033Z,0.14
2019-01-19T20:32:31.383Z,0.10
2019-01-19T20:35:18.655Z,0.10
2019-01-19T20:38:06.004Z,0.13
2019-01-19T20:40:53.253Z,0.09
2019-01-19T20:43:40.562Z,0.06
2019-01-19T20:46:28.530Z,-0.11
2019-01-19T20:49:15.832Z,0.00
2019-01-19T20:52:03.106Z,-0.04
2019-01-19T20:54:50.347Z,-0.10
2019-01-19T20:57:37.664Z,-0.07
2019-01-19T21:00:25.133Z,0.05
2019-01-19T21:03:12.840Z,0.08
2019-01-19T21:05:59.822Z,0.07
2019-01-19T21:08:47.307Z,0.05
2019-01-19T21:11:35.926Z,0.07
2019-01-19T21:14:24.950Z,0.07
2019-01-19T21:17:12.131Z,0.03
2019-01-19T21:20:00.440Z,-0.03
2019-01-19T21:22:47.649Z,0.02
2019-01-19T21:25:35.064Z,-0.02
2019-01-19T21:28:22.034Z,-0.32
2019-01-19T21:31:09.208Z,-0.31
2019-01-19T21:33:56.428Z,-0.27
2019-01-19T21:36:43.666Z,-0.19
2019-01-19T21:39:30.932Z,-0.15
2019-01-19T21:42:18.291Z,-0.27
2019-01-19T21:45:09.472Z,-0.32
2019-01-19T21:47:57.762Z,-0.30
2019-01-19T21:50:45.072Z,-0.32
2019-01-19T21:53:32.234Z,-0.44
2019-01-19T21:56:19.559Z,-0.52
2019-01-19T21:59:06.766Z,-0.46
2019-01-19T22:01:54.004Z,-0.40
2019-01-19T22:04:44.263Z,-0.41
2019-01-19T22:07:31.801Z,-0.39
2019-01-19T22:10:22.887Z,-0.37
2019-01-19T22:13:10.190Z,-0.35
2019-01-19T22:15:57.795Z,-0.41
2019-01-19T22:18:45.325Z,-0.52
2019-01-19T22:21:32.732Z,-0.51
2019-01-19T22:24:20.252Z,-0.62
2019-01-19T22:27:08.302Z,-0.74
2019-01-19T22:29:56.010Z,-0.89
2019-01-19T22:32:43.522Z,-0.87
2019-01-19T22:35:30.971Z,-0.73
2019-01-19T22:38:17.978Z,-0.66
2019-01-19T22:41:04.994Z,-0.62
2019-01-19T22:43:52.520Z,-0.59
2019-01-19T22:46:39.943Z,-0.61
2019-01-19T22:49:27.167Z,-0.69
2019-01-19T22:52:14.084Z,-0.65
2019-01-19T22:55:01.334Z,-0.67
2019-01-19T22:57:48.668Z,-0.62
2019-01-19T23:01:01.020Z,-0.66
2019-01-19T23:03:48.290Z,-0.68
2019-01-19T23:06:35.603Z,-0.70
2019-01-19T23:09:23.176Z,-0.73
2019-01-19T23:12:10.054Z,-0.74
2019-01-19T23:14:57.480Z,-0.76
2019-01-19T23:17:44.394Z,-0.78
2019-01-19T23:20:31.608Z,-0.80
2019-01-19T23:23:18.948Z,-0.83
2019-01-19T23:26:06.385Z,-0.84
2019-01-19T23:28:53.551Z,-0.81
2019-01-19T23:31:41.079Z,-0.81
2019-01-19T23:34:28.445Z,-0.78
2019-01-19T23:37:15.664Z,-0.82
2019-01-19T23:40:02.533Z,-0.85
2019-01-19T23:42:50.073Z,-0.85
2019-01-19T23:45:37.236Z,-0.84
2019-01-19T23:48:24.406Z,-0.86
2019-01-19T23:51:11.613Z,-0.86
2019-01-19T23:53:58.821Z,-0.91
2019-01-19T23:56:46.010Z,-0.94
2019-01-19T23:59:33.251Z,-0.92
